createdAt,value
2019-01-05T00:01:38.070Z,0.50
2019-01-05T00:04:24.719Z,0.20
2019-01-05T00:06:57.580Z,0.20
2019-01-05T00:09:40.619Z,0.10
2019-01-05T00:12:27.005Z,0.20
2019-01-05T00:15:02.971Z,0.20
2019-01-05T00:17:50.522Z,0.20
2019-01-05T00:20:20.997Z,0.20
2019-01-05T00:22:54.125Z,0.10
2019-01-05T00:25:39.494Z,0.40
2019-01-05T00:28:10.603Z,0.30
2019-01-05T00:30:52.833Z,0.70
2019-01-05T00:33:36.365Z,0.20
2019-01-05T00:36:07.531Z,0.30
2019-01-05T00:38:55.102Z,0.20
2019-01-05T00:41:35.721Z,0.30
2019-01-05T00:44:12.071Z,1.00
2019-01-05T00:46:59.543Z,0.10
2019-01-05T00:49:34.541Z,0.10
2019-01-05T00:52:14.277Z,0.20
2019-01-05T00:54:54.332Z,0.30
2019-01-05T00:57:41.120Z,0.30
2019-01-05T01:00:20.319Z,0.70
2019-01-05T01:02:56.339Z,0.40
2019-01-05T01:05:32.584Z,0.40
2019-01-05T01:08:08.537Z,0.70
2019-01-05T01:10:52.115Z,0.50
2019-01-05T01:13:38.642Z,0.40
2019-01-05T01:16:09.155Z,0.20
2019-01-05T01:18:51.339Z,0.40
2019-01-05T01:21:39.857Z,0.50
2019-01-05T01:24:12.849Z,0.40
2019-01-05T01:26:43.129Z,0.50
2019-01-05T01:29:25.399Z,0.50
2019-01-05T01:39:51.440Z,0.70
2019-01-05T01:45:22.629Z,0.40
2019-01-05T01:47:57.066Z,0.50
2019-01-05T01:50:36.343Z,0.40
2019-01-05T01:53:08.533Z,0.40
2019-01-05T01:55:40.529Z,0.50
2019-01-05T01:58:12.242Z,0.40
2019-01-05T02:00:57.009Z,0.20
2019-01-05T02:03:28.356Z,0.50
2019-01-05T02:06:06.327Z,0.60
2019-01-05T02:08:39.606Z,0.50
2019-01-05T02:11:27.773Z,0.70
2019-01-05T02:14:06.594Z,0.30
2019-01-05T02:16:56.054Z,0.50
2019-01-05T02:22:14.852Z,0.50
2019-01-05T02:25:07.024Z,0.30
2019-01-05T02:27:54.147Z,0.10
2019-01-05T02:30:50.876Z,0.30
2019-01-05T02:33:44.413Z,0.40
2019-01-05T02:36:37.062Z,0.40
2019-01-05T02:39:48.655Z,0.40
2019-01-05T02:42:36.431Z,0.40
2019-01-05T02:45:21.298Z,0.70
2019-01-05T02:48:00.463Z,0.30
2019-01-05T02:50:39.476Z,0.70
2019-01-05T02:53:21.544Z,0.40
2019-01-05T02:56:21.297Z,0.20
2019-01-05T02:59:31.728Z,0.40
2019-01-05T03:02:04.903Z,0.30
2019-01-05T03:04:49.790Z,0.10
2019-01-05T03:07:51.445Z,0.30
2019-01-05T03:10:48.519Z,0.30
2019-01-05T03:13:21.760Z,0.30
2019-01-05T03:16:09.643Z,0.40
2019-01-05T03:19:00.170Z,0.20
2019-01-05T03:21:45.403Z,0.20
2019-01-05T03:24:40.682Z,0.30
2019-01-05T03:27:40.915Z,0.30
2019-01-05T03:30:28.540Z,0.30
2019-01-05T03:33:01.796Z,0.20
2019-01-05T03:35:40.895Z,0.20
2019-01-05T03:38:30.625Z,0.20
2019-01-05T03:41:21.688Z,0.40
2019-01-05T03:44:24.437Z,0.20
2019-01-05T03:47:33.204Z,-0.10
2019-01-05T03:50:43.523Z,0.00
2019-01-05T03:53:38.808Z,0.10
2019-01-05T03:56:31.111Z,0.20
2019-01-05T03:59:10.093Z,0.20
2019-01-05T04:02:21.738Z,0.20
2019-01-05T04:08:13.920Z,0.20
2019-01-05T04:10:55.452Z,0.20
2019-01-05T04:14:01.465Z,0.10
2019-01-05T04:16:43.279Z,0.40
2019-01-05T04:19:43.055Z,0.20
2019-01-05T04:22:48.783Z,0.10
2019-01-05T04:25:40.894Z,0.20
2019-01-05T04:28:28.763Z,-0.40
2019-01-05T04:31:17.897Z,0.40
2019-01-05T04:34:09.941Z,0.20
2019-01-05T04:37:00.863Z,0.10
2019-01-05T04:39:45.940Z,-0.10
2019-01-05T04:42:27.815Z,0.10
2019-01-05T04:45:27.561Z,0.70
2019-01-05T04:48:26.233Z,0.10
2019-01-05T04:51:11.405Z,0.10
2019-01-05T04:54:17.033Z,0.00
2019-01-05T04:57:06.758Z,0.10
2019-01-05T04:59:51.677Z,0.10
2019-01-05T05:02:48.155Z,0.00
2019-01-05T05:05:49.483Z,0.00
2019-01-05T05:08:40.505Z,0.20
2019-01-05T05:11:32.877Z,0.10
2019-01-05T05:14:25.572Z,0.00
2019-01-05T05:17:44.248Z,0.10
2019-01-05T05:20:45.595Z,0.10
2019-01-05T05:24:00.784Z,0.10
2019-01-05T05:27:00.241Z,0.10
2019-01-05T05:29:50.604Z,0.20
2019-01-05T05:32:44.853Z,0.20
2019-01-05T05:35:44.720Z,0.10
2019-01-05T05:38:38.800Z,0.30
2019-01-05T05:41:11.954Z,0.00
2019-01-05T05:44:10.019Z,0.20
2019-01-05T05:47:16.132Z,0.20
2019-01-05T05:50:24.816Z,0.40
2019-01-05T05:56:13.910Z,0.60
2019-01-05T05:59:27.135Z,0.20
2019-01-05T06:02:26.856Z,0.10
2019-01-05T06:05:26.834Z,0.10
2019-01-05T06:08:39.878Z,0.30
2019-01-05T06:11:39.772Z,0.10
2019-01-05T06:14:58.476Z,0.40
2019-01-05T06:18:07.472Z,0.10
2019-01-05T06:23:48.538Z,0.30
2019-01-05T06:32:33.369Z,0.30
2019-01-05T06:38:08.816Z,0.30
2019-01-05T06:41:04.030Z,0.10
2019-01-05T06:46:52.008Z,0.20
2019-01-05T06:49:49.169Z,0.10
2019-01-05T06:52:30.928Z,0.20
2019-01-05T06:55:46.092Z,0.20
2019-01-05T06:58:52.142Z,0.20
2019-01-05T07:01:58.281Z,-0.10
2019-01-05T07:04:36.983Z,0.20
2019-01-05T07:07:32.355Z,0.20
2019-01-05T07:10:48.538Z,0.10
2019-01-05T07:13:30.200Z,0.30
2019-01-05T07:16:17.949Z,-0.20
2019-01-05T07:19:26.657Z,0.10
2019-01-05T07:22:41.773Z,0.20
2019-01-05T07:25:51.378Z,0.20
2019-01-05T07:29:02.149Z,0.30
2019-01-05T07:31:35.346Z,0.20
2019-01-05T07:34:17.128Z,0.20
2019-01-05T07:37:01.804Z,0.30
2019-01-05T07:39:51.368Z,0.20
2019-01-05T07:42:55.803Z,0.30
2019-01-05T07:45:34.679Z,0.20
2019-01-05T07:48:52.687Z,0.30
2019-01-05T07:52:16.361Z,0.30
2019-01-05T07:55:23.709Z,0.40
2019-01-05T07:58:17.814Z,0.30
2019-01-05T08:01:21.779Z,0.40
2019-01-05T08:04:27.681Z,0.30
2019-01-05T08:07:09.348Z,0.30
2019-01-05T08:10:27.558Z,0.40
2019-01-05T08:13:43.707Z,0.40
2019-01-05T08:16:31.540Z,0.40
2019-01-05T08:19:52.605Z,0.40
2019-01-05T08:22:56.664Z,0.40
2019-01-05T08:25:35.793Z,0.40
2019-01-05T08:28:17.558Z,0.50
2019-01-05T08:31:02.227Z,0.40
2019-01-05T08:33:46.995Z,0.40
2019-01-05T08:36:57.385Z,0.40
2019-01-05T08:40:00.609Z,0.40
2019-01-05T08:43:02.109Z,0.40
2019-01-05T08:46:13.589Z,0.40
2019-01-05T08:48:46.759Z,0.50
2019-01-05T08:51:19.962Z,0.40
2019-01-05T08:54:21.877Z,0.50
2019-01-05T08:57:06.871Z,0.50
2019-01-05T09:00:27.296Z,0.50
2019-01-05T09:03:18.603Z,0.50
2019-01-05T09:06:30.176Z,0.50
2019-01-05T09:09:25.378Z,0.50
2019-01-05T09:12:32.664Z,0.50
2019-01-05T09:15:30.837Z,0.50
2019-01-05T09:18:33.185Z,0.50
2019-01-05T09:21:17.927Z,0.50
2019-01-05T09:24:27.954Z,0.50
2019-01-05T09:27:35.154Z,0.60
2019-01-05T09:30:17.546Z,0.60
2019-01-05T09:33:06.831Z,-1.40
2019-01-05T09:36:00.906Z,0.60
2019-01-05T09:38:45.566Z,0.60
2019-01-05T09:41:38.173Z,0.60
2019-01-05T09:44:46.760Z,0.60
2019-01-05T09:47:55.618Z,0.60
2019-01-05T09:51:16.142Z,0.70
2019-01-05T09:54:07.251Z,0.60
2019-01-05T09:57:18.990Z,0.60
2019-01-05T10:00:06.710Z,0.60
2019-01-05T10:02:48.454Z,0.60
2019-01-05T10:05:39.780Z,0.50
2019-01-05T10:08:57.737Z,0.60
2019-01-05T10:11:42.608Z,0.60
2019-01-05T10:14:55.873Z,0.60
2019-01-05T10:18:12.005Z,0.60
2019-01-05T10:21:15.130Z,0.60
2019-01-05T10:24:05.704Z,0.70
2019-01-05T10:27:02.670Z,0.70
2019-01-05T10:30:13.041Z,0.60
2019-01-05T10:33:08.160Z,0.60
2019-01-05T10:36:09.498Z,0.60
2019-01-05T10:38:45.344Z,0.60
2019-01-05T10:41:52.501Z,0.60
2019-01-05T10:44:37.524Z,0.60
2019-01-05T10:47:16.048Z,0.60
2019-01-05T10:50:04.227Z,0.60
2019-01-05T10:52:49.173Z,0.70
2019-01-05T10:55:50.611Z,0.70
2019-01-05T10:58:54.797Z,0.70
2019-01-05T11:01:42.930Z,0.70
2019-01-05T11:04:21.335Z,0.60
2019-01-05T11:07:18.055Z,0.70
2019-01-05T11:10:06.046Z,0.70
2019-01-05T11:13:19.639Z,0.70
2019-01-05T11:16:10.396Z,0.70
2019-01-05T11:19:27.097Z,0.70
2019-01-05T11:22:22.451Z,0.70
2019-01-05T11:25:39.283Z,0.60
2019-01-05T11:28:27.313Z,0.70
2019-01-05T11:31:28.471Z,0.70
2019-01-05T11:34:19.749Z,0.70
2019-01-05T11:37:13.645Z,0.70
2019-01-05T11:40:19.339Z,0.70
2019-01-05T11:43:14.780Z,0.70
2019-01-05T11:46:10.358Z,0.70
2019-01-05T11:48:58.057Z,0.80
2019-01-05T11:51:54.810Z,0.80
2019-01-05T11:54:48.638Z,0.80
2019-01-05T11:57:36.740Z,0.80
2019-01-05T12:00:48.767Z,0.80
2019-01-05T12:03:27.686Z,0.70
2019-01-05T12:06:21.524Z,0.80
2019-01-05T12:09:18.585Z,0.80
2019-01-05T12:11:57.399Z,0.80
2019-01-05T12:14:39.325Z,0.80
2019-01-05T12:17:42.357Z,0.80
2019-01-05T12:20:57.259Z,0.80
2019-01-05T12:24:17.130Z,0.80
2019-01-05T12:27:21.628Z,0.90
2019-01-05T12:30:16.588Z,0.90
2019-01-05T12:33:10.754Z,0.90
2019-01-05T12:35:58.632Z,0.90
2019-01-05T12:38:55.846Z,0.80
2019-01-05T12:41:42.756Z,0.80
2019-01-05T12:44:33.430Z,0.80
2019-01-05T12:47:50.180Z,0.80
2019-01-05T12:50:45.487Z,0.80
2019-01-05T12:53:56.939Z,0.80
2019-01-05T12:56:57.946Z,0.80
2019-01-05T12:59:46.098Z,0.80
2019-01-05T13:02:34.386Z,0.90
2019-01-05T13:05:43.656Z,0.90
2019-01-05T13:08:48.263Z,0.90
2019-01-05T13:11:46.408Z,0.90
2019-01-05T13:14:35.727Z,0.80
2019-01-05T13:17:32.552Z,0.90
2019-01-05T13:20:30.558Z,0.80
2019-01-05T13:23:30.897Z,0.90
2019-01-05T13:26:37.835Z,0.80
2019-01-05T13:29:27.014Z,0.80
2019-01-05T13:32:30.358Z,0.80
2019-01-05T13:35:25.556Z,0.80
2019-01-05T13:38:23.069Z,0.90
2019-01-05T13:41:15.332Z,0.90
2019-01-05T13:44:07.291Z,0.80
2019-01-05T13:47:01.138Z,0.80
2019-01-05T13:49:53.788Z,0.80
2019-01-05T13:52:33.435Z,0.80
2019-01-05T13:55:04.495Z,0.80
2019-01-05T13:57:43.496Z,0.80
2019-01-05T14:00:15.667Z,0.80
2019-01-05T14:02:46.817Z,0.80
2019-01-05T14:05:34.471Z,0.80
2019-01-05T14:08:16.606Z,0.80
2019-01-05T14:10:53.424Z,0.80
2019-01-05T14:13:32.296Z,0.80
2019-01-05T14:16:02.536Z,0.80
2019-01-05T14:18:41.730Z,0.80
2019-01-05T14:21:12.188Z,0.90
2019-01-05T14:23:58.348Z,0.90
2019-01-05T14:26:31.177Z,0.90
2019-01-05T14:29:04.319Z,0.80
2019-01-05T14:31:50.369Z,0.80
2019-01-05T14:34:26.583Z,0.90
2019-01-05T14:37:12.675Z,0.80
2019-01-05T14:39:57.697Z,0.90
2019-01-05T14:42:33.852Z,0.90
2019-01-05T14:45:19.195Z,0.90
2019-01-05T14:48:05.727Z,0.90
2019-01-05T14:50:41.919Z,0.90
2019-01-05T14:53:27.887Z,0.80
2019-01-05T14:56:14.355Z,0.80
2019-01-05T14:59:01.919Z,0.80
2019-01-05T15:01:43.225Z,0.80
2019-01-05T15:04:16.159Z,0.90
2019-01-05T15:06:49.097Z,0.90
2019-01-05T15:09:35.571Z,0.90
2019-01-05T15:12:17.177Z,0.80
2019-01-05T15:14:56.023Z,1.00
2019-01-05T15:17:43.235Z,0.90
2019-01-05T15:20:28.377Z,0.90
2019-01-05T15:23:08.187Z,1.00
2019-01-05T15:25:53.259Z,0.80
2019-01-05T15:31:28.842Z,0.90
2019-01-05T15:34:15.139Z,0.90
2019-01-05T15:39:50.177Z,0.90
2019-01-05T15:42:38.288Z,0.80
2019-01-05T15:45:11.309Z,0.90
2019-01-05T15:47:44.930Z,0.80
2019-01-05T15:50:17.931Z,0.80
2019-01-05T15:53:04.361Z,1.00
2019-01-05T15:55:46.759Z,1.10
2019-01-05T15:58:33.780Z,0.70
2019-01-05T16:01:19.972Z,0.90
2019-01-05T16:04:01.888Z,1.10
2019-01-05T16:06:46.651Z,0.80
2019-01-05T16:09:22.670Z,0.80
2019-01-05T16:12:09.232Z,1.10
2019-01-05T16:14:55.554Z,0.90
2019-01-05T16:20:17.095Z,0.80
2019-01-05T16:23:03.330Z,0.90
2019-01-05T16:25:48.423Z,1.10
2019-01-05T16:28:19.223Z,0.90
2019-01-05T16:33:22.286Z,0.80
2019-01-05T16:36:01.193Z,1.10
2019-01-05T16:38:48.176Z,1.60
2019-01-05T16:41:19.928Z,1.00
2019-01-05T16:43:56.103Z,1.00
2019-01-05T16:46:34.988Z,0.90
2019-01-05T16:49:05.174Z,1.00
2019-01-05T16:51:35.313Z,1.60
2019-01-05T16:54:17.501Z,1.10
2019-01-05T16:56:59.463Z,1.10
2019-01-05T16:59:48.194Z,1.30
2019-01-05T17:02:35.582Z,1.00
2019-01-05T17:07:47.847Z,0.90
2019-01-05T17:10:28.376Z,1.10
2019-01-05T17:13:14.602Z,1.30
2019-01-05T17:15:47.332Z,1.10
2019-01-05T17:18:21.339Z,1.30
2019-01-05T17:20:51.857Z,1.40
2019-01-05T17:23:24.799Z,1.30
2019-01-05T17:26:14.567Z,1.20
2019-01-05T17:28:44.656Z,0.90
2019-01-05T17:31:27.973Z,1.20
2019-01-05T17:34:00.826Z,1.10
2019-01-05T17:36:38.112Z,1.30
2019-01-05T17:41:54.588Z,0.80
2019-01-05T17:44:28.076Z,1.30
2019-01-05T17:47:05.418Z,1.60
2019-01-05T17:49:47.433Z,1.20
2019-01-05T17:55:08.148Z,1.50
2019-01-05T17:57:47.278Z,1.50
2019-01-05T18:00:25.604Z,1.50
2019-01-05T18:03:13.836Z,1.00
2019-01-05T18:05:44.855Z,1.40
2019-01-05T18:08:24.053Z,1.40
2019-01-05T18:13:27.037Z,1.60
2019-01-05T18:15:57.205Z,1.60
2019-01-05T18:18:28.306Z,1.20
2019-01-05T18:21:15.679Z,1.60
2019-01-05T18:24:02.953Z,1.30
2019-01-05T18:26:50.198Z,1.40
2019-01-05T18:29:20.407Z,1.00
2019-01-05T18:31:50.586Z,1.40
2019-01-05T18:34:26.630Z,1.40
2019-01-05T18:37:05.785Z,1.60
2019-01-05T18:39:45.072Z,1.40
2019-01-05T18:42:30.383Z,1.30
2019-01-05T18:45:06.091Z,1.00
2019-01-05T18:47:52.553Z,1.30
2019-01-05T18:50:38.889Z,1.40
2019-01-05T18:53:12.597Z,1.00
2019-01-05T18:55:51.690Z,1.30
2019-01-05T18:58:26.227Z,1.20
2019-01-05T19:01:01.722Z,1.60
2019-01-05T19:03:32.054Z,1.30
2019-01-05T19:06:13.817Z,1.70
2019-01-05T19:08:44.005Z,1.50
2019-01-05T19:11:17.446Z,1.20
2019-01-05T19:13:50.256Z,1.70
2019-01-05T19:19:17.389Z,1.70
2019-01-05T19:29:34.460Z,1.70
2019-01-05T19:32:13.601Z,1.70
2019-01-05T19:35:00.131Z,1.80
2019-01-05T19:40:12.718Z,1.20
2019-01-05T19:45:41.054Z,1.70
2019-01-05T19:48:12.248Z,1.60
2019-01-05T19:50:48.400Z,1.40
2019-01-05T19:53:22.759Z,1.50
2019-01-05T19:55:52.891Z,1.70
2019-01-05T19:58:39.448Z,1.50
2019-01-05T20:01:14.740Z,1.60
2019-01-05T20:03:56.907Z,1.30
2019-01-05T20:06:28.611Z,1.70
2019-01-05T20:09:11.224Z,1.60
2019-01-05T20:11:57.254Z,1.60
2019-01-05T20:14:39.453Z,1.60
2019-01-05T20:17:15.376Z,1.70
2019-01-05T20:20:05.748Z,1.60
2019-01-05T20:25:39.482Z,1.70
2019-01-05T20:28:18.294Z,1.60
2019-01-05T20:31:08.554Z,1.80
2019-01-05T20:33:52.921Z,1.90
2019-01-05T20:36:26.360Z,1.50
2019-01-05T20:39:08.529Z,1.40
2019-01-05T20:41:40.279Z,1.40
2019-01-05T20:44:19.603Z,1.80
2019-01-05T20:47:05.744Z,1.70
2019-01-05T20:49:52.181Z,1.80
2019-01-05T20:57:41.801Z,1.90
2019-01-05T21:03:10.135Z,1.70
2019-01-05T21:05:43.018Z,1.60
2019-01-05T21:08:15.945Z,1.90
2019-01-05T21:11:02.351Z,1.80
2019-01-05T21:13:33.141Z,1.80
2019-01-05T21:18:38.635Z,1.90
2019-01-05T21:23:47.950Z,1.80
2019-01-05T21:26:33.291Z,1.40
2019-01-05T21:29:05.173Z,1.60
2019-01-05T21:31:35.325Z,1.60
2019-01-05T21:47:50.194Z,1.10
2019-01-05T21:55:53.102Z,1.60
2019-01-05T21:58:23.325Z,1.60
2019-01-05T22:03:57.600Z,1.10
2019-01-05T22:09:13.551Z,1.00
2019-01-05T22:11:52.283Z,1.00
2019-01-05T22:16:57.865Z,0.80
2019-01-05T22:19:42.579Z,1.00
2019-01-05T22:25:05.087Z,1.00
2019-01-05T22:27:51.851Z,0.80
2019-01-05T22:30:38.343Z,0.90
2019-01-05T22:35:56.216Z,0.90
2019-01-05T22:38:26.473Z,1.00
2019-01-05T22:40:59.339Z,0.70
2019-01-05T22:46:11.517Z,0.80
2019-01-05T22:48:54.213Z,0.80
2019-01-05T22:51:40.094Z,0.80
2019-01-05T22:54:10.385Z,0.80
2019-01-05T22:56:58.979Z,0.90
2019-01-05T22:59:41.303Z,0.60
2019-01-05T23:02:14.167Z,1.00
2019-01-05T23:04:47.350Z,0.90
2019-01-05T23:07:33.543Z,0.90
2019-01-05T23:13:05.645Z,0.90
2019-01-05T23:15:35.878Z,1.10
2019-01-05T23:18:06.084Z,1.00
2019-01-05T23:20:42.286Z,1.30
2019-01-05T23:23:27.345Z,1.20
2019-01-05T23:26:00.499Z,0.90
2019-01-05T23:28:36.659Z,1.10
2019-01-05T23:31:21.665Z,0.80
2019-01-05T23:34:07.763Z,1.50
2019-01-05T23:36:37.902Z,1.40
2019-01-05T23:41:53.932Z,1.30
2019-01-05T23:52:17.511Z,1.10
2019-01-05T23:54:53.450Z,1.30
2019-01-05T23:57:29.730Z,1.20
